sensor_id;sensor_type;location;lat;lon;timestamp;P1;durP1;ratioP1;P2;durP2;ratioP2
43118;SDS011;28729;49.838;8.650;2023-05-07T00:01:29;4.35;;;2.15;;
43118;SDS011;28729;49.838;8.650;2023-05-07T00:05:34;3.85;;;2.08;;
43118;SDS011;28729;49.838;8.650;2023-05-07T00:09:41;3.83;;;2.17;;
43118;SDS011;28729;49.838;8.650;2023-05-07T00:17:47;3.33;;;2.10;;
43118;SDS011;28729;49.838;8.650;2023-05-07T00:21:52;3.58;;;1.92;;
43118;SDS011;28729;49.838;8.650;2023-05-07T00:26:20;5.65;;;2.45;;
43118;SDS011;28729;49.838;8.650;2023-05-07T00:30:52;4.05;;;2.28;;
43118;SDS011;28729;49.838;8.650;2023-05-07T00:48:36;3.15;;;1.70;;
43118;SDS011;28729;49.838;8.650;2023-05-07T01:12:19;3.92;;;2.13;;
43118;SDS011;28729;49.838;8.650;2023-05-07T01:16:33;4.20;;;2.33;;
43118;SDS011;28729;49.838;8.650;2023-05-07T01:21:01;3.53;;;2.03;;
43118;SDS011;28729;49.838;8.650;2023-05-07T01:25:09;3.90;;;2.20;;
43118;SDS011;28729;49.838;8.650;2023-05-07T01:29:16;8.13;;;2.47;;
43118;SDS011;28729;49.838;8.650;2023-05-07T01:33:21;4.22;;;2.50;;
43118;SDS011;28729;49.838;8.650;2023-05-07T01:37:24;4.70;;;2.55;;
43118;SDS011;28729;49.838;8.650;2023-05-07T01:45:29;5.15;;;2.42;;
43118;SDS011;28729;49.838;8.650;2023-05-07T01:49:32;5.28;;;2.20;;
43118;SDS011;28729;49.838;8.650;2023-05-07T01:53:37;4.75;;;2.90;;
43118;SDS011;28729;49.838;8.650;2023-05-07T01:57:40;5.40;;;2.38;;
43118;SDS011;28729;49.838;8.650;2023-05-07T02:01:42;5.57;;;2.63;;
43118;SDS011;28729;49.838;8.650;2023-05-07T02:05:45;3.67;;;2.17;;
43118;SDS011;28729;49.838;8.650;2023-05-07T02:10:03;8.77;;;2.20;;
43118;SDS011;28729;49.838;8.650;2023-05-07T02:14:07;4.60;;;2.40;;
43118;SDS011;28729;49.838;8.650;2023-05-07T02:18:40;4.53;;;2.43;;
43118;SDS011;28729;49.838;8.650;2023-05-07T02:22:48;4.68;;;2.58;;
43118;SDS011;28729;49.838;8.650;2023-05-07T02:26:56;4.13;;;2.08;;
43118;SDS011;28729;49.838;8.650;2023-05-07T02:31:04;4.57;;;2.40;;
43118;SDS011;28729;49.838;8.650;2023-05-07T02:35:06;4.90;;;2.08;;
43118;SDS011;28729;49.838;8.650;2023-05-07T02:39:09;5.80;;;2.33;;
43118;SDS011;28729;49.838;8.650;2023-05-07T02:43:11;3.15;;;2.20;;
43118;SDS011;28729;49.838;8.650;2023-05-07T02:47:17;3.47;;;2.10;;
43118;SDS011;28729;49.838;8.650;2023-05-07T02:55:25;5.63;;;2.08;;
43118;SDS011;28729;49.838;8.650;2023-05-07T02:59:27;4.38;;;2.22;;
43118;SDS011;28729;49.838;8.650;2023-05-07T03:07:38;3.58;;;1.85;;
43118;SDS011;28729;49.838;8.650;2023-05-07T03:11:46;4.28;;;1.90;;
43118;SDS011;28729;49.838;8.650;2023-05-07T03:16:17;2.85;;;1.98;;
43118;SDS011;28729;49.838;8.650;2023-05-07T03:20:28;5.13;;;1.98;;
43118;SDS011;28729;49.838;8.650;2023-05-07T03:24:32;3.17;;;1.92;;
43118;SDS011;28729;49.838;8.650;2023-05-07T03:28:37;3.35;;;2.00;;
43118;SDS011;28729;49.838;8.650;2023-05-07T03:32:56;3.85;;;1.98;;
43118;SDS011;28729;49.838;8.650;2023-05-07T03:37:02;3.13;;;2.00;;
43118;SDS011;28729;49.838;8.650;2023-05-07T03:41:32;4.85;;;2.15;;
43118;SDS011;28729;49.838;8.650;2023-05-07T03:45:34;3.00;;;1.92;;
43118;SDS011;28729;49.838;8.650;2023-05-07T03:49:49;3.05;;;1.85;;
43118;SDS011;28729;49.838;8.650;2023-05-07T03:53:56;4.32;;;2.22;;
43118;SDS011;28729;49.838;8.650;2023-05-07T03:58:05;4.70;;;3.15;;
43118;SDS011;28729;49.838;8.650;2023-05-07T04:02:20;5.28;;;2.25;;
43118;SDS011;28729;49.838;8.650;2023-05-07T04:06:26;4.97;;;2.17;;
43118;SDS011;28729;49.838;8.650;2023-05-07T04:10:32;4.30;;;2.05;;
43118;SDS011;28729;49.838;8.650;2023-05-07T04:14:42;3.05;;;1.85;;
43118;SDS011;28729;49.838;8.650;2023-05-07T04:18:51;3.88;;;1.98;;
43118;SDS011;28729;49.838;8.650;2023-05-07T04:27:06;2.55;;;1.88;;
43118;SDS011;28729;49.838;8.650;2023-05-07T04:31:08;4.87;;;2.03;;
43118;SDS011;28729;49.838;8.650;2023-05-07T04:35:13;3.60;;;2.35;;
43118;SDS011;28729;49.838;8.650;2023-05-07T04:39:25;3.95;;;2.17;;
43118;SDS011;28729;49.838;8.650;2023-05-07T04:43:30;7.25;;;2.22;;
43118;SDS011;28729;49.838;8.650;2023-05-07T04:48:30;3.60;;;2.20;;
43118;SDS011;28729;49.838;8.650;2023-05-07T04:52:46;6.03;;;2.78;;
43118;SDS011;28729;49.838;8.650;2023-05-07T04:56:48;3.17;;;2.10;;
43118;SDS011;28729;49.838;8.650;2023-05-07T05:00:59;5.68;;;2.08;;
43118;SDS011;28729;49.838;8.650;2023-05-07T05:05:02;4.72;;;2.28;;
43118;SDS011;28729;49.838;8.650;2023-05-07T05:09:05;5.57;;;2.00;;
43118;SDS011;28729;49.838;8.650;2023-05-07T05:13:10;3.90;;;2.15;;
43118;SDS011;28729;49.838;8.650;2023-05-07T05:17:15;4.18;;;2.00;;
43118;SDS011;28729;49.838;8.650;2023-05-07T05:21:20;3.03;;;2.00;;
43118;SDS011;28729;49.838;8.650;2023-05-07T05:25:27;3.45;;;2.28;;
43118;SDS011;28729;49.838;8.650;2023-05-07T05:29:30;5.60;;;2.20;;
43118;SDS011;28729;49.838;8.650;2023-05-07T05:33:33;3.60;;;1.73;;
43118;SDS011;28729;49.838;8.650;2023-05-07T05:37:42;5.13;;;2.20;;
43118;SDS011;28729;49.838;8.650;2023-05-07T05:41:53;4.40;;;2.50;;
43118;SDS011;28729;49.838;8.650;2023-05-07T05:46:08;3.97;;;2.72;;
43118;SDS011;28729;49.838;8.650;2023-05-07T05:55:24;4.13;;;1.92;;
43118;SDS011;28729;49.838;8.650;2023-05-07T05:59:29;2.90;;;1.70;;
43118;SDS011;28729;49.838;8.650;2023-05-07T06:03:34;3.28;;;2.03;;
43118;SDS011;28729;49.838;8.650;2023-05-07T06:07:43;2.85;;;2.03;;
43118;SDS011;28729;49.838;8.650;2023-05-07T06:17:24;3.97;;;2.08;;
43118;SDS011;28729;49.838;8.650;2023-05-07T06:21:26;5.17;;;2.27;;
43118;SDS011;28729;49.838;8.650;2023-05-07T06:25:28;2.75;;;2.05;;
43118;SDS011;28729;49.838;8.650;2023-05-07T06:29:31;4.35;;;2.53;;
43118;SDS011;28729;49.838;8.650;2023-05-07T06:33:35;3.40;;;1.90;;
43118;SDS011;28729;49.838;8.650;2023-05-07T06:37:38;6.53;;;1.80;;
43118;SDS011;28729;49.838;8.650;2023-05-07T06:41:42;3.45;;;2.33;;
43118;SDS011;28729;49.838;8.650;2023-05-07T06:45:55;3.65;;;2.22;;
43118;SDS011;28729;49.838;8.650;2023-05-07T06:54:05;3.00;;;2.10;;
43118;SDS011;28729;49.838;8.650;2023-05-07T06:58:35;3.47;;;2.20;;
43118;SDS011;28729;49.838;8.650;2023-05-07T07:02:40;5.65;;;2.10;;
43118;SDS011;28729;49.838;8.650;2023-05-07T07:07:02;3.72;;;2.05;;
43118;SDS011;28729;49.838;8.650;2023-05-07T07:11:12;3.65;;;2.33;;
43118;SDS011;28729;49.838;8.650;2023-05-07T07:15:26;3.05;;;2.25;;
43118;SDS011;28729;49.838;8.650;2023-05-07T07:19:40;4.88;;;2.80;;
43118;SDS011;28729;49.838;8.650;2023-05-07T07:23:49;6.28;;;2.15;;
43118;SDS011;28729;49.838;8.650;2023-05-07T07:27:55;3.80;;;1.63;;
43118;SDS011;28729;49.838;8.650;2023-05-07T07:31:59;4.03;;;2.38;;
43118;SDS011;28729;49.838;8.650;2023-05-07T07:36:05;4.15;;;2.28;;
43118;SDS011;28729;49.838;8.650;2023-05-07T07:40:11;4.25;;;2.42;;
43118;SDS011;28729;49.838;8.650;2023-05-07T07:44:15;5.18;;;2.33;;
43118;SDS011;28729;49.838;8.650;2023-05-07T07:48:24;6.18;;;2.45;;
43118;SDS011;28729;49.838;8.650;2023-05-07T07:52:26;4.93;;;2.20;;
43118;SDS011;28729;49.838;8.650;2023-05-07T07:56:28;5.10;;;2.83;;
43118;SDS011;28729;49.838;8.650;2023-05-07T08:00:30;5.85;;;2.53;;
43118;SDS011;28729;49.838;8.650;2023-05-07T08:04:32;4.68;;;2.63;;
43118;SDS011;28729;49.838;8.650;2023-05-07T08:08:38;4.90;;;2.80;;
43118;SDS011;28729;49.838;8.650;2023-05-07T08:12:40;4.18;;;2.88;;
43118;SDS011;28729;49.838;8.650;2023-05-07T08:16:42;3.13;;;2.47;;
43118;SDS011;28729;49.838;8.650;2023-05-07T08:20:47;6.38;;;2.78;;
43118;SDS011;28729;49.838;8.650;2023-05-07T08:24:54;4.25;;;2.65;;
43118;SDS011;28729;49.838;8.650;2023-05-07T08:28:56;5.07;;;3.20;;
43118;SDS011;28729;49.838;8.650;2023-05-07T08:32:59;4.72;;;3.03;;
43118;SDS011;28729;49.838;8.650;2023-05-07T08:37:02;4.68;;;3.10;;
43118;SDS011;28729;49.838;8.650;2023-05-07T08:41:05;3.58;;;2.60;;
43118;SDS011;28729;49.838;8.650;2023-05-07T08:45:09;4.78;;;3.60;;
43118;SDS011;28729;49.838;8.650;2023-05-07T08:49:17;4.60;;;3.00;;
43118;SDS011;28729;49.838;8.650;2023-05-07T08:53:22;3.97;;;2.85;;
43118;SDS011;28729;49.838;8.650;2023-05-07T08:57:24;4.07;;;3.00;;
43118;SDS011;28729;49.838;8.650;2023-05-07T09:01:27;4.55;;;2.78;;
43118;SDS011;28729;49.838;8.650;2023-05-07T09:05:30;4.68;;;2.55;;
43118;SDS011;28729;49.838;8.650;2023-05-07T09:09:33;5.45;;;3.28;;
43118;SDS011;28729;49.838;8.650;2023-05-07T09:13:38;5.80;;;3.33;;
43118;SDS011;28729;49.838;8.650;2023-05-07T09:17:40;4.25;;;2.85;;
43118;SDS011;28729;49.838;8.650;2023-05-07T09:21:44;3.55;;;2.70;;
43118;SDS011;28729;49.838;8.650;2023-05-07T09:25:48;5.35;;;3.05;;
43118;SDS011;28729;49.838;8.650;2023-05-07T09:29:59;4.72;;;2.65;;
43118;SDS011;28729;49.838;8.650;2023-05-07T09:34:07;6.10;;;3.05;;
43118;SDS011;28729;49.838;8.650;2023-05-07T09:38:12;5.32;;;3.47;;
43118;SDS011;28729;49.838;8.650;2023-05-07T09:42:14;5.18;;;3.47;;
43118;SDS011;28729;49.838;8.650;2023-05-07T09:46:19;7.35;;;4.25;;
43118;SDS011;28729;49.838;8.650;2023-05-07T09:50:28;5.10;;;3.03;;
43118;SDS011;28729;49.838;8.650;2023-05-07T09:54:35;5.05;;;3.33;;
43118;SDS011;28729;49.838;8.650;2023-05-07T09:58:40;4.97;;;3.17;;
43118;SDS011;28729;49.838;8.650;2023-05-07T10:02:56;5.20;;;3.15;;
43118;SDS011;28729;49.838;8.650;2023-05-07T10:07:17;4.45;;;3.40;;
43118;SDS011;28729;49.838;8.650;2023-05-07T10:11:25;8.15;;;3.50;;
43118;SDS011;28729;49.838;8.650;2023-05-07T10:15:27;5.47;;;3.40;;
43118;SDS011;28729;49.838;8.650;2023-05-07T10:19:32;4.75;;;3.03;;
43118;SDS011;28729;49.838;8.650;2023-05-07T10:23:36;4.53;;;3.22;;
43118;SDS011;28729;49.838;8.650;2023-05-07T10:36:50;3.75;;;2.90;;
43118;SDS011;28729;49.838;8.650;2023-05-07T10:40:55;5.05;;;2.92;;
43118;SDS011;28729;49.838;8.650;2023-05-07T10:44:57;3.92;;;3.13;;
43118;SDS011;28729;49.838;8.650;2023-05-07T10:53:40;4.80;;;3.50;;
43118;SDS011;28729;49.838;8.650;2023-05-07T10:57:49;5.95;;;3.85;;
43118;SDS011;28729;49.838;8.650;2023-05-07T11:01:58;3.28;;;2.80;;
43118;SDS011;28729;49.838;8.650;2023-05-07T11:06:20;4.40;;;3.15;;
43118;SDS011;28729;49.838;8.650;2023-05-07T11:14:58;5.88;;;3.40;;
43118;SDS011;28729;49.838;8.650;2023-05-07T11:19:06;6.07;;;3.47;;
43118;SDS011;28729;49.838;8.650;2023-05-07T11:32:31;5.28;;;3.78;;
43118;SDS011;28729;49.838;8.650;2023-05-07T11:36:41;4.57;;;3.53;;
43118;SDS011;28729;49.838;8.650;2023-05-07T11:40:51;4.03;;;3.55;;
43118;SDS011;28729;49.838;8.650;2023-05-07T11:44:54;4.78;;;3.35;;
43118;SDS011;28729;49.838;8.650;2023-05-07T11:48:56;5.60;;;3.17;;
43118;SDS011;28729;49.838;8.650;2023-05-07T11:57:00;3.55;;;2.58;;
43118;SDS011;28729;49.838;8.650;2023-05-07T12:01:02;4.45;;;2.80;;
43118;SDS011;28729;49.838;8.650;2023-05-07T12:05:06;3.40;;;2.90;;
43118;SDS011;28729;49.838;8.650;2023-05-07T12:09:08;4.57;;;3.47;;
43118;SDS011;28729;49.838;8.650;2023-05-07T12:13:14;3.33;;;2.80;;
43118;SDS011;28729;49.838;8.650;2023-05-07T12:17:22;3.40;;;2.95;;
43118;SDS011;28729;49.838;8.650;2023-05-07T12:21:27;3.42;;;2.70;;
43118;SDS011;28729;49.838;8.650;2023-05-07T12:25:36;3.38;;;2.90;;
43118;SDS011;28729;49.838;8.650;2023-05-07T12:29:46;4.60;;;2.78;;
43118;SDS011;28729;49.838;8.650;2023-05-07T12:33:48;4.00;;;2.78;;
43118;SDS011;28729;49.838;8.650;2023-05-07T12:37:55;4.38;;;2.30;;
43118;SDS011;28729;49.838;8.650;2023-05-07T12:41:58;3.28;;;2.28;;
43118;SDS011;28729;49.838;8.650;2023-05-07T12:46:01;4.97;;;2.78;;
43118;SDS011;28729;49.838;8.650;2023-05-07T12:50:07;3.60;;;2.55;;
43118;SDS011;28729;49.838;8.650;2023-05-07T12:54:13;7.13;;;3.03;;
43118;SDS011;28729;49.838;8.650;2023-05-07T12:58:17;4.07;;;2.75;;
43118;SDS011;28729;49.838;8.650;2023-05-07T13:02:20;3.85;;;2.90;;
43118;SDS011;28729;49.838;8.650;2023-05-07T13:06:33;4.20;;;3.00;;
43118;SDS011;28729;49.838;8.650;2023-05-07T13:10:35;4.82;;;2.90;;
43118;SDS011;28729;49.838;8.650;2023-05-07T13:14:37;3.95;;;2.88;;
43118;SDS011;28729;49.838;8.650;2023-05-07T13:18:39;3.58;;;2.58;;
43118;SDS011;28729;49.838;8.650;2023-05-07T13:22:42;3.65;;;3.00;;
43118;SDS011;28729;49.838;8.650;2023-05-07T13:26:44;3.88;;;2.85;;
43118;SDS011;28729;49.838;8.650;2023-05-07T13:30:46;3.20;;;2.42;;
43118;SDS011;28729;49.838;8.650;2023-05-07T13:34:48;4.03;;;2.50;;
43118;SDS011;28729;49.838;8.650;2023-05-07T13:38:50;4.10;;;2.42;;
43118;SDS011;28729;49.838;8.650;2023-05-07T13:42:56;3.70;;;2.53;;
43118;SDS011;28729;49.838;8.650;2023-05-07T13:47:04;4.03;;;2.10;;
43118;SDS011;28729;49.838;8.650;2023-05-07T13:51:15;5.15;;;2.42;;
43118;SDS011;28729;49.838;8.650;2023-05-07T13:55:23;3.30;;;2.50;;
43118;SDS011;28729;49.838;8.650;2023-05-07T13:59:38;5.72;;;2.70;;
43118;SDS011;28729;49.838;8.650;2023-05-07T14:03:44;3.85;;;2.25;;
43118;SDS011;28729;49.838;8.650;2023-05-07T14:07:53;2.63;;;1.98;;
43118;SDS011;28729;49.838;8.650;2023-05-07T14:11:59;2.85;;;2.00;;
43118;SDS011;28729;49.838;8.650;2023-05-07T14:16:08;2.97;;;2.30;;
43118;SDS011;28729;49.838;8.650;2023-05-07T14:20:10;4.18;;;2.03;;
43118;SDS011;28729;49.838;8.650;2023-05-07T14:24:19;3.72;;;2.20;;
43118;SDS011;28729;49.838;8.650;2023-05-07T14:28:38;3.60;;;1.95;;
43118;SDS011;28729;49.838;8.650;2023-05-07T14:32:49;3.05;;;1.83;;
43118;SDS011;28729;49.838;8.650;2023-05-07T14:36:55;4.18;;;2.00;;
43118;SDS011;28729;49.838;8.650;2023-05-07T14:41:04;4.47;;;2.25;;
43118;SDS011;28729;49.838;8.650;2023-05-07T14:45:07;4.13;;;2.05;;
43118;SDS011;28729;49.838;8.650;2023-05-07T14:49:21;2.42;;;1.80;;
43118;SDS011;28729;49.838;8.650;2023-05-07T14:53:26;3.20;;;2.17;;
43118;SDS011;28729;49.838;8.650;2023-05-07T15:01:44;2.78;;;2.28;;
43118;SDS011;28729;49.838;8.650;2023-05-07T15:05:47;5.72;;;2.10;;
43118;SDS011;28729;49.838;8.650;2023-05-07T15:09:59;2.95;;;2.15;;
43118;SDS011;28729;49.838;8.650;2023-05-07T15:14:03;2.97;;;2.30;;
43118;SDS011;28729;49.838;8.650;2023-05-07T15:18:13;3.38;;;2.63;;
43118;SDS011;28729;49.838;8.650;2023-05-07T15:22:21;4.47;;;2.35;;
43118;SDS011;28729;49.838;8.650;2023-05-07T15:26:26;3.42;;;2.30;;
43118;SDS011;28729;49.838;8.650;2023-05-07T15:30:29;3.83;;;2.43;;
43118;SDS011;28729;49.838;8.650;2023-05-07T15:34:34;3.58;;;2.55;;
43118;SDS011;28729;49.838;8.650;2023-05-07T15:38:40;3.63;;;2.63;;
43118;SDS011;28729;49.838;8.650;2023-05-07T15:42:50;5.10;;;2.67;;
43118;SDS011;28729;49.838;8.650;2023-05-07T15:47:03;5.88;;;2.50;;
43118;SDS011;28729;49.838;8.650;2023-05-07T15:51:07;6.18;;;2.72;;
43118;SDS011;28729;49.838;8.650;2023-05-07T15:55:13;5.70;;;2.55;;
43118;SDS011;28729;49.838;8.650;2023-05-07T15:59:25;5.13;;;2.58;;
43118;SDS011;28729;49.838;8.650;2023-05-07T16:04:12;5.22;;;3.40;;
43118;SDS011;28729;49.838;8.650;2023-05-07T16:08:18;5.95;;;3.05;;
43118;SDS011;28729;49.838;8.650;2023-05-07T16:12:24;8.90;;;3.70;;
43118;SDS011;28729;49.838;8.650;2023-05-07T16:16:26;7.68;;;3.20;;
43118;SDS011;28729;49.838;8.650;2023-05-07T16:20:31;4.82;;;3.13;;
43118;SDS011;28729;49.838;8.650;2023-05-07T16:24:33;5.57;;;2.67;;
43118;SDS011;28729;49.838;8.650;2023-05-07T16:28:39;4.97;;;2.30;;
43118;SDS011;28729;49.838;8.650;2023-05-07T16:32:41;4.80;;;2.40;;
43118;SDS011;28729;49.838;8.650;2023-05-07T16:36:45;6.40;;;4.05;;
43118;SDS011;28729;49.838;8.650;2023-05-07T16:40:47;5.40;;;2.78;;
43118;SDS011;28729;49.838;8.650;2023-05-07T16:44:49;4.82;;;2.92;;
43118;SDS011;28729;49.838;8.650;2023-05-07T16:48:52;5.80;;;3.28;;
43118;SDS011;28729;49.838;8.650;2023-05-07T16:53:01;4.78;;;3.08;;
43118;SDS011;28729;49.838;8.650;2023-05-07T16:57:05;5.38;;;3.42;;
43118;SDS011;28729;49.838;8.650;2023-05-07T17:01:14;4.10;;;2.67;;
43118;SDS011;28729;49.838;8.650;2023-05-07T17:05:20;4.47;;;2.95;;
43118;SDS011;28729;49.838;8.650;2023-05-07T17:09:23;10.27;;;3.13;;
43118;SDS011;28729;49.838;8.650;2023-05-07T17:13:32;4.00;;;2.92;;
43118;SDS011;28729;49.838;8.650;2023-05-07T17:17:41;5.22;;;2.83;;
43118;SDS011;28729;49.838;8.650;2023-05-07T17:21:45;6.97;;;3.55;;
43118;SDS011;28729;49.838;8.650;2023-05-07T17:29:50;13.57;;;4.07;;
43118;SDS011;28729;49.838;8.650;2023-05-07T17:33:52;6.43;;;3.55;;
43118;SDS011;28729;49.838;8.650;2023-05-07T17:37:59;6.20;;;3.75;;
43118;SDS011;28729;49.838;8.650;2023-05-07T17:42:04;9.35;;;4.25;;
43118;SDS011;28729;49.838;8.650;2023-05-07T17:46:07;5.32;;;3.55;;
43118;SDS011;28729;49.838;8.650;2023-05-07T17:50:14;8.07;;;3.95;;
43118;SDS011;28729;49.838;8.650;2023-05-07T17:54:24;8.15;;;3.85;;
43118;SDS011;28729;49.838;8.650;2023-05-07T17:58:37;9.23;;;4.47;;
43118;SDS011;28729;49.838;8.650;2023-05-07T18:03:02;7.75;;;3.83;;
43118;SDS011;28729;49.838;8.650;2023-05-07T18:07:09;5.95;;;3.72;;
43118;SDS011;28729;49.838;8.650;2023-05-07T18:11:12;8.50;;;4.05;;
43118;SDS011;28729;49.838;8.650;2023-05-07T18:15:14;7.33;;;4.10;;
43118;SDS011;28729;49.838;8.650;2023-05-07T18:19:17;5.80;;;3.65;;
43118;SDS011;28729;49.838;8.650;2023-05-07T18:23:26;8.10;;;3.83;;
43118;SDS011;28729;49.838;8.650;2023-05-07T18:27:29;9.40;;;4.20;;
43118;SDS011;28729;49.838;8.650;2023-05-07T18:31:31;9.67;;;4.87;;
43118;SDS011;28729;49.838;8.650;2023-05-07T18:35:42;8.73;;;5.13;;
43118;SDS011;28729;49.838;8.650;2023-05-07T18:39:45;7.37;;;4.60;;
43118;SDS011;28729;49.838;8.650;2023-05-07T18:43:49;8.88;;;4.72;;
43118;SDS011;28729;49.838;8.650;2023-05-07T18:47:52;8.80;;;4.57;;
43118;SDS011;28729;49.838;8.650;2023-05-07T18:52:00;6.18;;;4.60;;
43118;SDS011;28729;49.838;8.650;2023-05-07T18:56:02;9.35;;;4.63;;
43118;SDS011;28729;49.838;8.650;2023-05-07T19:00:08;9.25;;;5.53;;
43118;SDS011;28729;49.838;8.650;2023-05-07T19:04:14;8.05;;;4.88;;
43118;SDS011;28729;49.838;8.650;2023-05-07T19:08:18;6.95;;;4.78;;
43118;SDS011;28729;49.838;8.650;2023-05-07T19:12:25;9.00;;;5.15;;
43118;SDS011;28729;49.838;8.650;2023-05-07T19:21:22;8.85;;;5.97;;
43118;SDS011;28729;49.838;8.650;2023-05-07T19:25:25;8.38;;;5.13;;
43118;SDS011;28729;49.838;8.650;2023-05-07T19:33:29;8.25;;;4.55;;
43118;SDS011;28729;49.838;8.650;2023-05-07T19:37:31;10.47;;;6.20;;
43118;SDS011;28729;49.838;8.650;2023-05-07T19:41:33;7.75;;;5.60;;
43118;SDS011;28729;49.838;8.650;2023-05-07T19:45:37;12.10;;;5.30;;
43118;SDS011;28729;49.838;8.650;2023-05-07T19:49:44;13.13;;;7.63;;
43118;SDS011;28729;49.838;8.650;2023-05-07T19:53:46;11.00;;;6.00;;
43118;SDS011;28729;49.838;8.650;2023-05-07T19:57:47;10.88;;;6.40;;
43118;SDS011;28729;49.838;8.650;2023-05-07T20:01:55;9.68;;;6.13;;
43118;SDS011;28729;49.838;8.650;2023-05-07T20:05:58;8.07;;;5.33;;
43118;SDS011;28729;49.838;8.650;2023-05-07T20:10:05;10.60;;;5.70;;
43118;SDS011;28729;49.838;8.650;2023-05-07T20:14:09;10.07;;;5.40;;
43118;SDS011;28729;49.838;8.650;2023-05-07T20:18:14;8.98;;;6.03;;
43118;SDS011;28729;49.838;8.650;2023-05-07T20:22:19;9.15;;;6.28;;
43118;SDS011;28729;49.838;8.650;2023-05-07T20:26:24;11.63;;;5.43;;
43118;SDS011;28729;49.838;8.650;2023-05-07T20:30:28;12.25;;;5.97;;
43118;SDS011;28729;49.838;8.650;2023-05-07T20:34:31;13.73;;;6.38;;
43118;SDS011;28729;49.838;8.650;2023-05-07T20:38:33;12.17;;;6.47;;
43118;SDS011;28729;49.838;8.650;2023-05-07T20:42:38;12.65;;;6.80;;
43118;SDS011;28729;49.838;8.650;2023-05-07T20:46:40;12.40;;;7.90;;
43118;SDS011;28729;49.838;8.650;2023-05-07T20:50:41;11.85;;;7.68;;
43118;SDS011;28729;49.838;8.650;2023-05-07T20:54:44;12.70;;;8.75;;
43118;SDS011;28729;49.838;8.650;2023-05-07T20:58:47;12.80;;;8.63;;
43118;SDS011;28729;49.838;8.650;2023-05-07T21:02:49;12.50;;;7.70;;
43118;SDS011;28729;49.838;8.650;2023-05-07T21:06:51;14.15;;;8.02;;
43118;SDS011;28729;49.838;8.650;2023-05-07T21:10:54;14.25;;;8.05;;
43118;SDS011;28729;49.838;8.650;2023-05-07T21:14:57;13.32;;;7.82;;
43118;SDS011;28729;49.838;8.650;2023-05-07T21:18:59;14.57;;;8.48;;
43118;SDS011;28729;49.838;8.650;2023-05-07T21:23:02;14.05;;;9.13;;
43118;SDS011;28729;49.838;8.650;2023-05-07T21:27:04;15.57;;;9.55;;
43118;SDS011;28729;49.838;8.650;2023-05-07T21:31:06;16.07;;;9.33;;
43118;SDS011;28729;49.838;8.650;2023-05-07T21:35:09;12.50;;;9.15;;
43118;SDS011;28729;49.838;8.650;2023-05-07T21:39:11;15.73;;;8.80;;
43118;SDS011;28729;49.838;8.650;2023-05-07T21:43:13;17.33;;;9.97;;
43118;SDS011;28729;49.838;8.650;2023-05-07T21:47:15;15.43;;;8.88;;
43118;SDS011;28729;49.838;8.650;2023-05-07T21:51:17;13.70;;;8.57;;
43118;SDS011;28729;49.838;8.650;2023-05-07T21:55:19;15.73;;;8.85;;
43118;SDS011;28729;49.838;8.650;2023-05-07T21:59:20;14.75;;;8.82;;
43118;SDS011;28729;49.838;8.650;2023-05-07T22:03:22;18.35;;;9.57;;
43118;SDS011;28729;49.838;8.650;2023-05-07T22:07:24;16.17;;;9.17;;
43118;SDS011;28729;49.838;8.650;2023-05-07T22:11:26;13.48;;;8.90;;
43118;SDS011;28729;49.838;8.650;2023-05-07T22:15:28;13.80;;;8.68;;
43118;SDS011;28729;49.838;8.650;2023-05-07T22:19:29;15.23;;;8.57;;
43118;SDS011;28729;49.838;8.650;2023-05-07T22:23:31;13.43;;;9.43;;
43118;SDS011;28729;49.838;8.650;2023-05-07T22:27:33;16.23;;;8.60;;
43118;SDS011;28729;49.838;8.650;2023-05-07T22:31:35;13.10;;;8.13;;
43118;SDS011;28729;49.838;8.650;2023-05-07T22:35:37;12.80;;;8.75;;
43118;SDS011;28729;49.838;8.650;2023-05-07T22:39:39;14.63;;;8.63;;
43118;SDS011;28729;49.838;8.650;2023-05-07T22:43:43;16.13;;;8.20;;
43118;SDS011;28729;49.838;8.650;2023-05-07T22:47:45;14.23;;;8.70;;
43118;SDS011;28729;49.838;8.650;2023-05-07T22:51:46;12.88;;;7.90;;
43118;SDS011;28729;49.838;8.650;2023-05-07T22:55:49;11.50;;;7.50;;
43118;SDS011;28729;49.838;8.650;2023-05-07T22:59:54;11.20;;;7.32;;
43118;SDS011;28729;49.838;8.650;2023-05-07T23:03:56;10.73;;;7.03;;
43118;SDS011;28729;49.838;8.650;2023-05-07T23:07:58;11.57;;;7.75;;
43118;SDS011;28729;49.838;8.650;2023-05-07T23:12:02;13.90;;;8.90;;
43118;SDS011;28729;49.838;8.650;2023-05-07T23:16:05;15.63;;;9.13;;
43118;SDS011;28729;49.838;8.650;2023-05-07T23:20:08;16.92;;;9.48;;
43118;SDS011;28729;49.838;8.650;2023-05-07T23:24:10;16.35;;;9.32;;
43118;SDS011;28729;49.838;8.650;2023-05-07T23:28:13;16.65;;;9.82;;
43118;SDS011;28729;49.838;8.650;2023-05-07T23:32:14;19.33;;;11.47;;
43118;SDS011;28729;49.838;8.650;2023-05-07T23:36:17;16.75;;;11.07;;
43118;SDS011;28729;49.838;8.650;2023-05-07T23:40:19;17.42;;;11.05;;
43118;SDS011;28729;49.838;8.650;2023-05-07T23:44:20;18.20;;;10.48;;
43118;SDS011;28729;49.838;8.650;2023-05-07T23:48:22;18.02;;;11.02;;
43118;SDS011;28729;49.838;8.650;2023-05-07T23:52:24;19.75;;;10.73;;
43118;SDS011;28729;49.838;8.650;2023-05-07T23:56:26;17.98;;;11.00;;
